sensor_id;sensor_type;location;lat;lon;timestamp;temperature;humidity
12704;DHT22;6416;52.182;7.650;2022-09-09T00:02:24;19.40;65.40
12704;DHT22;6416;52.182;7.650;2022-09-09T00:05:21;19.50;66.60
12704;DHT22;6416;52.182;7.650;2022-09-09T00:07:51;19.50;66.60
12704;DHT22;6416;52.182;7.650;2022-09-09T00:10:29;19.50;65.70
12704;DHT22;6416;52.182;7.650;2022-09-09T00:13:20;19.50;66.30
12704;DHT22;6416;52.182;7.650;2022-09-09T00:21:54;19.50;66.40
12704;DHT22;6416;52.182;7.650;2022-09-09T00:23:50;19.50;66.40
12704;DHT22;6416;52.182;7.650;2022-09-09T00:26:47;19.50;66.40
12704;DHT22;6416;52.182;7.650;2022-09-09T00:31:57;19.60;67.30
12704;DHT22;6416;52.182;7.650;2022-09-09T00:34:26;19.60;66.90
12704;DHT22;6416;52.182;7.650;2022-09-09T00:36:53;19.60;66.80
12704;DHT22;6416;52.182;7.650;2022-09-09T00:39:42;19.60;66.80
12704;DHT22;6416;52.182;7.650;2022-09-09T00:42:17;19.60;68.00
12704;DHT22;6416;52.182;7.650;2022-09-09T00:45:07;19.60;67.30
12704;DHT22;6416;52.182;7.650;2022-09-09T00:47:50;19.60;68.00
12704;DHT22;6416;52.182;7.650;2022-09-09T00:50:45;19.60;67.50
12704;DHT22;6416;52.182;7.650;2022-09-09T00:56:13;19.70;68.00
12704;DHT22;6416;52.182;7.650;2022-09-09T00:58:43;19.60;67.20
12704;DHT22;6416;52.182;7.650;2022-09-09T01:01:13;19.60;67.10
12704;DHT22;6416;52.182;7.650;2022-09-09T01:03:48;19.60;67.10
12704;DHT22;6416;52.182;7.650;2022-09-09T01:06:31;19.60;67.70
12704;DHT22;6416;52.182;7.650;2022-09-09T01:09:23;19.60;68.10
12704;DHT22;6416;52.182;7.650;2022-09-09T01:12:23;19.60;68.20
12704;DHT22;6416;52.182;7.650;2022-09-09T01:14:52;19.60;67.90
12704;DHT22;6416;52.182;7.650;2022-09-09T01:17:30;19.60;67.30
12704;DHT22;6416;52.182;7.650;2022-09-09T01:22:38;19.50;67.20
12704;DHT22;6416;52.182;7.650;2022-09-09T01:27:37;19.50;67.50
12704;DHT22;6416;52.182;7.650;2022-09-09T01:30:11;19.50;67.20
12704;DHT22;6416;52.182;7.650;2022-09-09T01:32:50;19.50;67.80
12704;DHT22;6416;52.182;7.650;2022-09-09T01:35:24;19.50;68.00
12704;DHT22;6416;52.182;7.650;2022-09-09T01:37:52;19.40;67.40
12704;DHT22;6416;52.182;7.650;2022-09-09T01:40:18;19.40;67.20
12704;DHT22;6416;52.182;7.650;2022-09-09T01:42:44;19.50;67.40
12704;DHT22;6416;52.182;7.650;2022-09-09T01:45:10;19.40;67.40
12704;DHT22;6416;52.182;7.650;2022-09-09T01:47:36;19.40;67.50
12704;DHT22;6416;52.182;7.650;2022-09-09T01:50:02;19.40;67.60
12704;DHT22;6416;52.182;7.650;2022-09-09T01:52:28;19.40;67.70
12704;DHT22;6416;52.182;7.650;2022-09-09T01:54:53;19.40;67.60
12704;DHT22;6416;52.182;7.650;2022-09-09T01:57:30;19.40;67.60
12704;DHT22;6416;52.182;7.650;2022-09-09T02:00:01;19.40;67.90
12704;DHT22;6416;52.182;7.650;2022-09-09T02:02:32;19.40;67.60
12704;DHT22;6416;52.182;7.650;2022-09-09T02:10:26;19.30;67.50
12704;DHT22;6416;52.182;7.650;2022-09-09T02:13:01;19.20;68.30
12704;DHT22;6416;52.182;7.650;2022-09-09T02:15:47;19.20;67.60
12704;DHT22;6416;52.182;7.650;2022-09-09T02:18:23;19.20;67.80
12704;DHT22;6416;52.182;7.650;2022-09-09T02:20:51;19.10;67.40
12704;DHT22;6416;52.182;7.650;2022-09-09T02:23:17;19.10;67.50
12704;DHT22;6416;52.182;7.650;2022-09-09T02:25:44;19.10;67.60
12704;DHT22;6416;52.182;7.650;2022-09-09T02:28:12;19.00;67.80
12704;DHT22;6416;52.182;7.650;2022-09-09T02:30:40;18.90;67.70
12704;DHT22;6416;52.182;7.650;2022-09-09T02:33:08;18.90;67.80
12704;DHT22;6416;52.182;7.650;2022-09-09T02:35:34;18.80;67.90
12704;DHT22;6416;52.182;7.650;2022-09-09T02:38:04;18.80;67.90
12704;DHT22;6416;52.182;7.650;2022-09-09T02:40:32;18.80;68.30
12704;DHT22;6416;52.182;7.650;2022-09-09T02:42:57;18.80;68.10
12704;DHT22;6416;52.182;7.650;2022-09-09T02:45:27;18.70;68.10
12704;DHT22;6416;52.182;7.650;2022-09-09T02:48:00;18.70;68.40
12704;DHT22;6416;52.182;7.650;2022-09-09T02:50:35;18.70;68.40
12704;DHT22;6416;52.182;7.650;2022-09-09T02:53:16;18.70;68.50
12704;DHT22;6416;52.182;7.650;2022-09-09T02:55:54;18.70;69.30
12704;DHT22;6416;52.182;7.650;2022-09-09T02:58:21;18.70;68.70
12704;DHT22;6416;52.182;7.650;2022-09-09T03:00:49;18.70;68.70
12704;DHT22;6416;52.182;7.650;2022-09-09T03:03:16;18.70;68.90
12704;DHT22;6416;52.182;7.650;2022-09-09T03:05:42;18.70;69.00
12704;DHT22;6416;52.182;7.650;2022-09-09T03:08:08;18.70;69.00
12704;DHT22;6416;52.182;7.650;2022-09-09T03:10:33;18.70;69.00
12704;DHT22;6416;52.182;7.650;2022-09-09T03:12:59;18.70;69.00
12704;DHT22;6416;52.182;7.650;2022-09-09T03:15:24;18.70;69.10
12704;DHT22;6416;52.182;7.650;2022-09-09T03:17:50;18.70;69.10
12704;DHT22;6416;52.182;7.650;2022-09-09T03:20:15;18.80;69.20
12704;DHT22;6416;52.182;7.650;2022-09-09T03:22:41;18.80;69.20
12704;DHT22;6416;52.182;7.650;2022-09-09T03:25:07;18.80;69.20
12704;DHT22;6416;52.182;7.650;2022-09-09T03:27:33;18.80;69.20
12704;DHT22;6416;52.182;7.650;2022-09-09T03:29:58;18.80;69.20
12704;DHT22;6416;52.182;7.650;2022-09-09T03:32:24;18.80;69.20
12704;DHT22;6416;52.182;7.650;2022-09-09T03:34:49;18.80;69.20
12704;DHT22;6416;52.182;7.650;2022-09-09T03:37:16;18.80;69.20
12704;DHT22;6416;52.182;7.650;2022-09-09T03:39:41;18.80;69.30
12704;DHT22;6416;52.182;7.650;2022-09-09T03:42:07;18.80;69.20
12704;DHT22;6416;52.182;7.650;2022-09-09T03:44:32;18.80;69.30
12704;DHT22;6416;52.182;7.650;2022-09-09T03:46:58;18.80;69.30
12704;DHT22;6416;52.182;7.650;2022-09-09T03:49:23;18.80;69.40
12704;DHT22;6416;52.182;7.650;2022-09-09T03:51:49;18.80;69.40
12704;DHT22;6416;52.182;7.650;2022-09-09T03:54:14;18.80;69.50
12704;DHT22;6416;52.182;7.650;2022-09-09T03:56:40;18.80;69.40
12704;DHT22;6416;52.182;7.650;2022-09-09T03:59:05;18.80;69.40
12704;DHT22;6416;52.182;7.650;2022-09-09T04:01:31;18.80;69.40
12704;DHT22;6416;52.182;7.650;2022-09-09T04:03:56;18.80;69.50
12704;DHT22;6416;52.182;7.650;2022-09-09T04:06:22;18.80;69.50
12704;DHT22;6416;52.182;7.650;2022-09-09T04:08:47;18.70;69.40
12704;DHT22;6416;52.182;7.650;2022-09-09T04:11:12;18.70;69.40
12704;DHT22;6416;52.182;7.650;2022-09-09T04:13:38;18.70;69.40
12704;DHT22;6416;52.182;7.650;2022-09-09T04:16:07;18.70;69.40
12704;DHT22;6416;52.182;7.650;2022-09-09T04:18:34;18.70;69.40
12704;DHT22;6416;52.182;7.650;2022-09-09T04:20:59;18.60;69.30
12704;DHT22;6416;52.182;7.650;2022-09-09T04:23:26;18.60;69.50
12704;DHT22;6416;52.182;7.650;2022-09-09T04:25:53;18.60;69.50
12704;DHT22;6416;52.182;7.650;2022-09-09T04:28:22;18.50;69.50
12704;DHT22;6416;52.182;7.650;2022-09-09T04:30:48;18.50;69.80
12704;DHT22;6416;52.182;7.650;2022-09-09T04:33:14;18.50;69.70
12704;DHT22;6416;52.182;7.650;2022-09-09T04:35:48;18.40;69.80
12704;DHT22;6416;52.182;7.650;2022-09-09T04:38:15;18.50;70.40
12704;DHT22;6416;52.182;7.650;2022-09-09T04:40:46;18.40;70.00
12704;DHT22;6416;52.182;7.650;2022-09-09T04:43:12;18.40;70.50
12704;DHT22;6416;52.182;7.650;2022-09-09T04:45:38;18.40;70.20
12704;DHT22;6416;52.182;7.650;2022-09-09T04:48:03;18.40;71.00
12704;DHT22;6416;52.182;7.650;2022-09-09T04:50:28;18.40;70.40
12704;DHT22;6416;52.182;7.650;2022-09-09T04:52:54;18.40;70.40
12704;DHT22;6416;52.182;7.650;2022-09-09T04:55:19;18.50;70.50
12704;DHT22;6416;52.182;7.650;2022-09-09T04:57:45;18.40;70.50
12704;DHT22;6416;52.182;7.650;2022-09-09T05:00:11;18.50;70.60
12704;DHT22;6416;52.182;7.650;2022-09-09T05:02:37;18.50;70.60
12704;DHT22;6416;52.182;7.650;2022-09-09T05:05:03;18.50;70.70
12704;DHT22;6416;52.182;7.650;2022-09-09T05:07:29;18.50;70.80
12704;DHT22;6416;52.182;7.650;2022-09-09T05:09:54;18.50;70.80
12704;DHT22;6416;52.182;7.650;2022-09-09T05:12:20;18.50;70.80
12704;DHT22;6416;52.182;7.650;2022-09-09T05:14:45;18.50;70.80
12704;DHT22;6416;52.182;7.650;2022-09-09T05:17:11;18.50;70.80
12704;DHT22;6416;52.182;7.650;2022-09-09T05:19:36;18.50;70.90
12704;DHT22;6416;52.182;7.650;2022-09-09T05:22:02;18.50;70.90
12704;DHT22;6416;52.182;7.650;2022-09-09T05:24:28;18.50;70.90
12704;DHT22;6416;52.182;7.650;2022-09-09T05:26:54;18.50;71.00
12704;DHT22;6416;52.182;7.650;2022-09-09T05:29:19;18.50;71.00
12704;DHT22;6416;52.182;7.650;2022-09-09T05:31:45;18.50;71.10
12704;DHT22;6416;52.182;7.650;2022-09-09T05:34:11;18.50;71.20
12704;DHT22;6416;52.182;7.650;2022-09-09T05:36:36;18.60;71.40
12704;DHT22;6416;52.182;7.650;2022-09-09T05:39:02;18.60;71.40
12704;DHT22;6416;52.182;7.650;2022-09-09T05:41:28;18.60;71.40
12704;DHT22;6416;52.182;7.650;2022-09-09T05:43:53;18.70;71.50
12704;DHT22;6416;52.182;7.650;2022-09-09T05:46:24;18.60;71.60
12704;DHT22;6416;52.182;7.650;2022-09-09T05:48:50;18.70;71.70
12704;DHT22;6416;52.182;7.650;2022-09-09T05:51:18;18.70;71.60
12704;DHT22;6416;52.182;7.650;2022-09-09T05:53:45;18.70;71.70
12704;DHT22;6416;52.182;7.650;2022-09-09T05:56:17;18.70;71.70
12704;DHT22;6416;52.182;7.650;2022-09-09T05:58:42;18.80;71.90
12704;DHT22;6416;52.182;7.650;2022-09-09T06:01:13;18.80;71.70
12704;DHT22;6416;52.182;7.650;2022-09-09T06:03:40;18.90;72.00
12704;DHT22;6416;52.182;7.650;2022-09-09T06:06:08;18.90;71.80
12704;DHT22;6416;52.182;7.650;2022-09-09T06:08:35;18.90;71.80
12704;DHT22;6416;52.182;7.650;2022-09-09T06:11:09;18.90;71.80
12704;DHT22;6416;52.182;7.650;2022-09-09T06:13:35;18.90;71.90
12704;DHT22;6416;52.182;7.650;2022-09-09T06:16:01;18.90;71.80
12704;DHT22;6416;52.182;7.650;2022-09-09T06:18:27;18.90;71.70
12704;DHT22;6416;52.182;7.650;2022-09-09T06:21:00;18.90;72.00
12704;DHT22;6416;52.182;7.650;2022-09-09T06:23:27;18.90;72.40
12704;DHT22;6416;52.182;7.650;2022-09-09T06:28:33;18.90;72.70
12704;DHT22;6416;52.182;7.650;2022-09-09T06:31:03;19.00;72.30
12704;DHT22;6416;52.182;7.650;2022-09-09T06:33:37;18.90;72.40
12704;DHT22;6416;52.182;7.650;2022-09-09T06:36:03;19.00;72.90
12704;DHT22;6416;52.182;7.650;2022-09-09T06:38:29;19.00;72.50
12704;DHT22;6416;52.182;7.650;2022-09-09T06:40:56;19.00;72.50
12704;DHT22;6416;52.182;7.650;2022-09-09T06:43:22;19.00;72.60
12704;DHT22;6416;52.182;7.650;2022-09-09T06:45:56;19.10;72.70
12704;DHT22;6416;52.182;7.650;2022-09-09T06:48:21;19.10;73.10
12704;DHT22;6416;52.182;7.650;2022-09-09T06:50:47;19.20;72.90
12704;DHT22;6416;52.182;7.650;2022-09-09T06:53:15;19.20;72.90
12704;DHT22;6416;52.182;7.650;2022-09-09T06:55:41;19.30;72.90
12704;DHT22;6416;52.182;7.650;2022-09-09T06:58:09;19.30;72.90
12704;DHT22;6416;52.182;7.650;2022-09-09T07:00:35;19.40;73.00
12704;DHT22;6416;52.182;7.650;2022-09-09T07:03:00;19.40;72.90
12704;DHT22;6416;52.182;7.650;2022-09-09T07:05:25;19.50;73.00
12704;DHT22;6416;52.182;7.650;2022-09-09T07:07:51;19.60;73.30
12704;DHT22;6416;52.182;7.650;2022-09-09T07:10:17;19.70;73.20
12704;DHT22;6416;52.182;7.650;2022-09-09T07:12:42;19.70;73.20
12704;DHT22;6416;52.182;7.650;2022-09-09T07:15:08;19.90;73.20
12704;DHT22;6416;52.182;7.650;2022-09-09T07:17:33;20.00;73.30
12704;DHT22;6416;52.182;7.650;2022-09-09T07:19:59;20.00;73.00
12704;DHT22;6416;52.182;7.650;2022-09-09T07:22:24;20.20;72.90
12704;DHT22;6416;52.182;7.650;2022-09-09T07:24:50;20.20;72.70
12704;DHT22;6416;52.182;7.650;2022-09-09T07:27:15;20.30;72.40
12704;DHT22;6416;52.182;7.650;2022-09-09T07:29:41;20.30;72.10
12704;DHT22;6416;52.182;7.650;2022-09-09T07:32:06;20.30;72.00
12704;DHT22;6416;52.182;7.650;2022-09-09T07:34:32;20.30;71.80
12704;DHT22;6416;52.182;7.650;2022-09-09T07:36:57;20.40;71.90
12704;DHT22;6416;52.182;7.650;2022-09-09T07:39:23;20.50;71.80
12704;DHT22;6416;52.182;7.650;2022-09-09T07:41:49;20.50;71.80
12704;DHT22;6416;52.182;7.650;2022-09-09T07:44:18;20.50;71.70
12704;DHT22;6416;52.182;7.650;2022-09-09T07:46:44;20.50;71.70
12704;DHT22;6416;52.182;7.650;2022-09-09T07:49:11;20.60;71.60
12704;DHT22;6416;52.182;7.650;2022-09-09T07:51:42;20.60;71.70
12704;DHT22;6416;52.182;7.650;2022-09-09T07:54:10;20.70;71.90
12704;DHT22;6416;52.182;7.650;2022-09-09T07:56:37;20.80;72.20
12704;DHT22;6416;52.182;7.650;2022-09-09T07:59:03;20.90;72.30
12704;DHT22;6416;52.182;7.650;2022-09-09T08:01:31;21.10;72.30
12704;DHT22;6416;52.182;7.650;2022-09-09T08:04:03;21.20;72.10
12704;DHT22;6416;52.182;7.650;2022-09-09T08:06:31;21.30;71.70
12704;DHT22;6416;52.182;7.650;2022-09-09T08:08:56;21.50;71.60
12704;DHT22;6416;52.182;7.650;2022-09-09T08:11:24;21.60;71.40
12704;DHT22;6416;52.182;7.650;2022-09-09T08:13:51;21.70;71.50
12704;DHT22;6416;52.182;7.650;2022-09-09T08:16:19;21.90;71.60
12704;DHT22;6416;52.182;7.650;2022-09-09T08:18:45;22.20;71.80
12704;DHT22;6416;52.182;7.650;2022-09-09T08:21:19;22.50;71.90
12704;DHT22;6416;52.182;7.650;2022-09-09T08:23:45;22.80;70.90
12704;DHT22;6416;52.182;7.650;2022-09-09T08:26:12;23.00;70.00
12704;DHT22;6416;52.182;7.650;2022-09-09T08:28:39;23.20;69.40
12704;DHT22;6416;52.182;7.650;2022-09-09T08:31:16;23.40;68.30
12704;DHT22;6416;52.182;7.650;2022-09-09T08:33:42;23.50;66.40
12704;DHT22;6416;52.182;7.650;2022-09-09T08:36:10;23.60;67.60
12704;DHT22;6416;52.182;7.650;2022-09-09T08:38:37;23.70;67.00
12704;DHT22;6416;52.182;7.650;2022-09-09T08:50:35;23.80;64.60
12704;DHT22;6416;52.182;7.650;2022-09-09T09:06:29;25.40;66.00
12704;DHT22;6416;52.182;7.650;2022-09-09T09:12:01;26.60;65.70
12704;DHT22;6416;52.182;7.650;2022-09-09T09:14:31;27.30;65.60
12704;DHT22;6416;52.182;7.650;2022-09-09T09:19:28;28.30;62.80
12704;DHT22;6416;52.182;7.650;2022-09-09T09:22:04;28.60;59.60
12704;DHT22;6416;52.182;7.650;2022-09-09T09:27:14;28.40;56.60
12704;DHT22;6416;52.182;7.650;2022-09-09T09:29:40;28.20;56.20
12704;DHT22;6416;52.182;7.650;2022-09-09T09:32:11;28.10;56.10
12704;DHT22;6416;52.182;7.650;2022-09-09T09:34:38;28.00;56.10
12704;DHT22;6416;52.182;7.650;2022-09-09T09:37:16;27.80;55.80
12704;DHT22;6416;52.182;7.650;2022-09-09T09:39:42;27.70;56.00
12704;DHT22;6416;52.182;7.650;2022-09-09T09:42:13;27.80;57.50
12704;DHT22;6416;52.182;7.650;2022-09-09T09:44:38;27.80;56.90
12704;DHT22;6416;52.182;7.650;2022-09-09T09:47:18;28.00;57.80
12704;DHT22;6416;52.182;7.650;2022-09-09T09:49:58;28.30;57.80
12704;DHT22;6416;52.182;7.650;2022-09-09T09:52:26;28.70;55.20
12704;DHT22;6416;52.182;7.650;2022-09-09T09:54:53;29.00;56.50
12704;DHT22;6416;52.182;7.650;2022-09-09T09:57:26;29.30;56.20
12704;DHT22;6416;52.182;7.650;2022-09-09T10:02:41;30.10;55.00
12704;DHT22;6416;52.182;7.650;2022-09-09T10:05:18;30.50;55.70
12704;DHT22;6416;52.182;7.650;2022-09-09T10:07:44;30.80;52.40
12704;DHT22;6416;52.182;7.650;2022-09-09T10:10:15;31.10;53.00
12704;DHT22;6416;52.182;7.650;2022-09-09T10:13:11;31.40;51.90
12704;DHT22;6416;52.182;7.650;2022-09-09T10:16:06;31.50;51.00
12704;DHT22;6416;52.182;7.650;2022-09-09T10:21:51;31.90;49.30
12704;DHT22;6416;52.182;7.650;2022-09-09T10:27:14;32.20;48.30
12704;DHT22;6416;52.182;7.650;2022-09-09T10:30:16;32.00;46.10
12704;DHT22;6416;52.182;7.650;2022-09-09T10:35:30;31.50;46.80
12704;DHT22;6416;52.182;7.650;2022-09-09T10:38:16;31.30;46.30
12704;DHT22;6416;52.182;7.650;2022-09-09T10:43:42;31.00;47.40
12704;DHT22;6416;52.182;7.650;2022-09-09T10:55:16;32.00;48.10
12704;DHT22;6416;52.182;7.650;2022-09-09T10:57:48;32.30;46.70
12704;DHT22;6416;52.182;7.650;2022-09-09T11:00:16;32.60;45.70
12704;DHT22;6416;52.182;7.650;2022-09-09T11:02:42;32.90;46.50
12704;DHT22;6416;52.182;7.650;2022-09-09T11:08:19;33.70;43.60
12704;DHT22;6416;52.182;7.650;2022-09-09T11:11:25;33.90;42.70
12704;DHT22;6416;52.182;7.650;2022-09-09T11:13:58;34.10;41.50
12704;DHT22;6416;52.182;7.650;2022-09-09T11:16:30;34.10;42.20
12704;DHT22;6416;52.182;7.650;2022-09-09T11:21:48;33.60;41.00
12704;DHT22;6416;52.182;7.650;2022-09-09T11:24:21;33.30;40.90
12704;DHT22;6416;52.182;7.650;2022-09-09T11:27:01;33.00;40.80
12704;DHT22;6416;52.182;7.650;2022-09-09T11:29:56;32.90;39.70
12704;DHT22;6416;52.182;7.650;2022-09-09T11:38:18;33.50;42.60
12704;DHT22;6416;52.182;7.650;2022-09-09T11:40:45;33.80;42.00
12704;DHT22;6416;52.182;7.650;2022-09-09T11:43:13;33.90;41.20
12704;DHT22;6416;52.182;7.650;2022-09-09T11:45:43;34.10;41.40
12704;DHT22;6416;52.182;7.650;2022-09-09T11:48:42;34.40;41.10
12704;DHT22;6416;52.182;7.650;2022-09-09T11:51:13;34.70;41.50
12704;DHT22;6416;52.182;7.650;2022-09-09T11:54:32;34.80;41.20
12704;DHT22;6416;52.182;7.650;2022-09-09T11:56:58;34.90;39.90
12704;DHT22;6416;52.182;7.650;2022-09-09T11:59:24;35.00;40.50
12704;DHT22;6416;52.182;7.650;2022-09-09T12:02:01;35.10;40.00
12704;DHT22;6416;52.182;7.650;2022-09-09T12:07:26;35.00;39.00
12704;DHT22;6416;52.182;7.650;2022-09-09T12:10:22;34.80;38.00
12704;DHT22;6416;52.182;7.650;2022-09-09T12:12:48;34.70;37.70
12704;DHT22;6416;52.182;7.650;2022-09-09T12:15:22;34.60;37.70
12704;DHT22;6416;52.182;7.650;2022-09-09T12:17:50;34.60;37.70
12704;DHT22;6416;52.182;7.650;2022-09-09T12:20:23;34.60;36.50
12704;DHT22;6416;52.182;7.650;2022-09-09T12:23:11;34.60;36.50
12704;DHT22;6416;52.182;7.650;2022-09-09T12:31:15;34.80;36.60
12704;DHT22;6416;52.182;7.650;2022-09-09T12:33:44;34.90;37.10
12704;DHT22;6416;52.182;7.650;2022-09-09T12:36:24;35.00;36.90
12704;DHT22;6416;52.182;7.650;2022-09-09T12:38:50;35.20;35.90
12704;DHT22;6416;52.182;7.650;2022-09-09T12:41:24;35.10;35.60
12704;DHT22;6416;52.182;7.650;2022-09-09T12:43:50;34.90;34.80
12704;DHT22;6416;52.182;7.650;2022-09-09T12:48:48;34.20;34.50
12704;DHT22;6416;52.182;7.650;2022-09-09T12:51:21;33.90;34.20
12704;DHT22;6416;52.182;7.650;2022-09-09T12:53:48;33.50;34.10
12704;DHT22;6416;52.182;7.650;2022-09-09T12:56:25;33.10;34.70
12704;DHT22;6416;52.182;7.650;2022-09-09T12:58:54;32.80;34.80
12704;DHT22;6416;52.182;7.650;2022-09-09T13:01:33;32.50;35.60
12704;DHT22;6416;52.182;7.650;2022-09-09T13:03:59;32.40;35.90
12704;DHT22;6416;52.182;7.650;2022-09-09T13:06:27;32.20;36.20
12704;DHT22;6416;52.182;7.650;2022-09-09T13:08:55;32.20;37.30
12704;DHT22;6416;52.182;7.650;2022-09-09T13:11:42;32.30;37.30
12704;DHT22;6416;52.182;7.650;2022-09-09T13:14:19;32.30;36.30
12704;DHT22;6416;52.182;7.650;2022-09-09T13:17:18;32.10;35.30
12704;DHT22;6416;52.182;7.650;2022-09-09T13:19:45;31.90;36.00
12704;DHT22;6416;52.182;7.650;2022-09-09T13:22:42;31.80;36.20
12704;DHT22;6416;52.182;7.650;2022-09-09T13:27:39;31.90;37.60
12704;DHT22;6416;52.182;7.650;2022-09-09T13:32:45;32.20;37.80
12704;DHT22;6416;52.182;7.650;2022-09-09T13:35:24;32.30;37.20
12704;DHT22;6416;52.182;7.650;2022-09-09T13:37:49;32.30;36.60
12704;DHT22;6416;52.182;7.650;2022-09-09T13:40:20;32.30;36.50
12704;DHT22;6416;52.182;7.650;2022-09-09T13:42:46;32.20;36.20
12704;DHT22;6416;52.182;7.650;2022-09-09T13:45:18;32.00;35.90
12704;DHT22;6416;52.182;7.650;2022-09-09T13:47:44;31.80;35.80
12704;DHT22;6416;52.182;7.650;2022-09-09T13:50:22;31.60;35.60
12704;DHT22;6416;52.182;7.650;2022-09-09T13:52:49;31.30;35.50
12704;DHT22;6416;52.182;7.650;2022-09-09T13:55:14;31.00;35.40
12704;DHT22;6416;52.182;7.650;2022-09-09T13:57:50;30.70;35.50
12704;DHT22;6416;52.182;7.650;2022-09-09T14:00:16;30.30;36.70
12704;DHT22;6416;52.182;7.650;2022-09-09T14:02:42;29.90;37.40
12704;DHT22;6416;52.182;7.650;2022-09-09T14:05:07;29.40;38.70
12704;DHT22;6416;52.182;7.650;2022-09-09T14:07:32;28.90;40.80
12704;DHT22;6416;52.182;7.650;2022-09-09T14:09:58;28.40;41.70
12704;DHT22;6416;52.182;7.650;2022-09-09T14:12:24;27.90;42.40
12704;DHT22;6416;52.182;7.650;2022-09-09T14:14:49;27.50;43.10
12704;DHT22;6416;52.182;7.650;2022-09-09T14:17:14;27.00;43.60
12704;DHT22;6416;52.182;7.650;2022-09-09T14:19:40;26.70;44.10
12704;DHT22;6416;52.182;7.650;2022-09-09T14:22:05;26.40;44.40
12704;DHT22;6416;52.182;7.650;2022-09-09T14:24:31;26.10;45.00
12704;DHT22;6416;52.182;7.650;2022-09-09T14:26:56;25.90;45.40
12704;DHT22;6416;52.182;7.650;2022-09-09T14:29:22;25.70;46.10
12704;DHT22;6416;52.182;7.650;2022-09-09T14:31:47;25.60;46.40
12704;DHT22;6416;52.182;7.650;2022-09-09T14:34:13;25.50;46.90
12704;DHT22;6416;52.182;7.650;2022-09-09T14:36:38;25.40;47.30
12704;DHT22;6416;52.182;7.650;2022-09-09T14:39:04;25.30;47.30
12704;DHT22;6416;52.182;7.650;2022-09-09T14:41:30;25.30;47.60
12704;DHT22;6416;52.182;7.650;2022-09-09T14:43:55;25.20;48.20
12704;DHT22;6416;52.182;7.650;2022-09-09T14:46:21;25.10;48.40
12704;DHT22;6416;52.182;7.650;2022-09-09T14:48:46;25.00;48.50
12704;DHT22;6416;52.182;7.650;2022-09-09T14:53:43;24.80;49.50
12704;DHT22;6416;52.182;7.650;2022-09-09T14:56:14;24.70;49.10
12704;DHT22;6416;52.182;7.650;2022-09-09T14:58:40;24.60;49.50
12704;DHT22;6416;52.182;7.650;2022-09-09T15:01:09;24.60;49.70
12704;DHT22;6416;52.182;7.650;2022-09-09T15:03:35;24.50;50.30
12704;DHT22;6416;52.182;7.650;2022-09-09T15:06:08;24.40;50.20
12704;DHT22;6416;52.182;7.650;2022-09-09T15:08:35;24.40;51.30
12704;DHT22;6416;52.182;7.650;2022-09-09T15:11:02;24.40;50.90
12704;DHT22;6416;52.182;7.650;2022-09-09T15:13:28;24.30;51.00
12704;DHT22;6416;52.182;7.650;2022-09-09T15:15:54;24.30;51.30
12704;DHT22;6416;52.182;7.650;2022-09-09T15:18:20;24.30;51.30
12704;DHT22;6416;52.182;7.650;2022-09-09T15:20:45;24.40;51.50
12704;DHT22;6416;52.182;7.650;2022-09-09T15:23:11;24.40;51.90
12704;DHT22;6416;52.182;7.650;2022-09-09T15:25:37;24.50;52.20
12704;DHT22;6416;52.182;7.650;2022-09-09T15:28:02;24.60;52.30
12704;DHT22;6416;52.182;7.650;2022-09-09T15:30:28;24.70;52.30
12704;DHT22;6416;52.182;7.650;2022-09-09T15:32:53;24.70;52.60
12704;DHT22;6416;52.182;7.650;2022-09-09T15:35:19;24.80;52.70
12704;DHT22;6416;52.182;7.650;2022-09-09T15:37:44;24.90;52.60
12704;DHT22;6416;52.182;7.650;2022-09-09T15:40:10;25.00;52.60
12704;DHT22;6416;52.182;7.650;2022-09-09T15:42:35;25.10;52.40
12704;DHT22;6416;52.182;7.650;2022-09-09T15:45:01;25.10;52.00
12704;DHT22;6416;52.182;7.650;2022-09-09T15:47:26;25.10;52.00
12704;DHT22;6416;52.182;7.650;2022-09-09T15:49:52;25.10;52.10
12704;DHT22;6416;52.182;7.650;2022-09-09T15:52:17;25.10;52.00
12704;DHT22;6416;52.182;7.650;2022-09-09T15:54:43;25.10;51.90
12704;DHT22;6416;52.182;7.650;2022-09-09T15:57:12;25.00;51.40
12704;DHT22;6416;52.182;7.650;2022-09-09T15:59:38;24.90;51.40
12704;DHT22;6416;52.182;7.650;2022-09-09T16:02:04;24.90;51.40
12704;DHT22;6416;52.182;7.650;2022-09-09T16:04:29;24.80;51.30
12704;DHT22;6416;52.182;7.650;2022-09-09T16:07:05;24.70;51.40
12704;DHT22;6416;52.182;7.650;2022-09-09T16:09:34;24.60;52.00
12704;DHT22;6416;52.182;7.650;2022-09-09T16:12:01;24.60;51.90
12704;DHT22;6416;52.182;7.650;2022-09-09T16:14:27;24.40;51.70
12704;DHT22;6416;52.182;7.650;2022-09-09T16:16:53;24.30;51.90
12704;DHT22;6416;52.182;7.650;2022-09-09T16:19:18;24.30;52.10
12704;DHT22;6416;52.182;7.650;2022-09-09T16:21:48;24.20;52.20
12704;DHT22;6416;52.182;7.650;2022-09-09T16:24:17;24.20;52.60
12704;DHT22;6416;52.182;7.650;2022-09-09T16:26:46;24.10;53.20
12704;DHT22;6416;52.182;7.650;2022-09-09T16:29:13;24.10;52.60
12704;DHT22;6416;52.182;7.650;2022-09-09T16:31:38;24.00;52.50
12704;DHT22;6416;52.182;7.650;2022-09-09T16:34:04;23.90;52.50
12704;DHT22;6416;52.182;7.650;2022-09-09T16:36:31;23.90;52.60
12704;DHT22;6416;52.182;7.650;2022-09-09T16:38:59;23.90;52.70
12704;DHT22;6416;52.182;7.650;2022-09-09T16:41:26;23.80;52.70
12704;DHT22;6416;52.182;7.650;2022-09-09T16:43:57;23.80;52.90
12704;DHT22;6416;52.182;7.650;2022-09-09T16:46:23;23.70;53.00
12704;DHT22;6416;52.182;7.650;2022-09-09T16:48:50;23.60;52.80
12704;DHT22;6416;52.182;7.650;2022-09-09T16:51:21;23.60;53.00
12704;DHT22;6416;52.182;7.650;2022-09-09T16:53:47;23.50;53.60
12704;DHT22;6416;52.182;7.650;2022-09-09T16:56:15;23.50;54.00
12704;DHT22;6416;52.182;7.650;2022-09-09T16:58:41;23.40;54.20
12704;DHT22;6416;52.182;7.650;2022-09-09T17:01:07;23.30;54.40
12704;DHT22;6416;52.182;7.650;2022-09-09T17:03:32;23.10;54.70
12704;DHT22;6416;52.182;7.650;2022-09-09T17:05:59;23.00;55.40
12704;DHT22;6416;52.182;7.650;2022-09-09T17:08:24;22.80;55.80
12704;DHT22;6416;52.182;7.650;2022-09-09T17:10:50;22.60;56.10
12704;DHT22;6416;52.182;7.650;2022-09-09T17:13:16;22.50;56.40
12704;DHT22;6416;52.182;7.650;2022-09-09T17:15:42;22.30;56.80
12704;DHT22;6416;52.182;7.650;2022-09-09T17:18:10;22.20;57.30
12704;DHT22;6416;52.182;7.650;2022-09-09T17:20:40;22.00;57.80
12704;DHT22;6416;52.182;7.650;2022-09-09T17:23:06;21.90;58.70
12704;DHT22;6416;52.182;7.650;2022-09-09T17:25:32;21.80;59.00
12704;DHT22;6416;52.182;7.650;2022-09-09T17:27:58;21.70;59.40
12704;DHT22;6416;52.182;7.650;2022-09-09T17:30:23;21.50;59.50
12704;DHT22;6416;52.182;7.650;2022-09-09T17:32:49;21.50;59.90
12704;DHT22;6416;52.182;7.650;2022-09-09T17:35:14;21.40;60.10
12704;DHT22;6416;52.182;7.650;2022-09-09T17:37:40;21.30;60.60
12704;DHT22;6416;52.182;7.650;2022-09-09T17:40:06;21.20;60.50
12704;DHT22;6416;52.182;7.650;2022-09-09T17:42:31;21.20;61.70
12704;DHT22;6416;52.182;7.650;2022-09-09T17:44:57;21.10;61.20
12704;DHT22;6416;52.182;7.650;2022-09-09T17:47:22;21.10;61.30
12704;DHT22;6416;52.182;7.650;2022-09-09T17:49:48;21.00;61.30